Palmetto State — KPSJ — position and weather

sailwx.info

Track history (hours):
 
Tides and Currents Weather Stations Pressure Air Temp Water Temp Dewpoint Dewpoint Depression Visibility Wind Speed Wind Dir Waves Ship Positions

Palmetto State

Owner: Crowley Petroleum Services, Inc., Jacksonville, FL. More information available from US FCC via Universal Licensing System and Coast Guard Vessel Documentation Center.

Last reported at 2017-Nov-12 16:02 UTC. Time now 2017-Nov-20 02:16 UTC.
Position N 29°45' W 095°06'.

Length 186 m; draft 8.9 m.

Type: Tanker. MMSI: 369225000.

Date/timePositionNaut miles runAvg speedWind from/ knotsBaromVisibWave heightAir tempDewpointWater temp
2017-Nov-12 16:02N 29°45' W 095°06'0 0.0
2017-Nov-12 16:00N 29°45' W 095°06'0 0.0
2017-Nov-12 15:31N 29°45' W 095°06'0 0.1
2017-Nov-12 15:00N 29°45' W 095°06'1 2.0
2017-Nov-12 14:30N 29°46' W 095°05'3 6.0
2017-Nov-12 14:00N 29°44' W 095°03'4 7.7
2017-Nov-12 13:30N 29°41' W 094°59'510.8
2017-Nov-12 13:00N 29°36' W 094°57'612.5
2017-Nov-12 12:30N 29°31' W 094°53'612.9
2017-Nov-12 12:00N 29°25' W 094°50'  
2017-Nov-07 09:45N 28°59' W 093°13'314.0
2017-Nov-07 09:30N 29°02' W 093°13'814.1
2017-Nov-07 08:58N 29°10' W 093°13'1014.0
2017-Nov-07 08:15N 29°20' W 093°14'313.2
2017-Nov-07 07:59N 29°23' W 093°14'612.2
2017-Nov-07 07:28N 29°29' W 093°13'11 9.9
2017-Nov-07 06:20N 29°39' W 093°20'711.0
2017-Nov-07 05:40N 29°47' W 093°21'2 8.2
2017-Nov-07 05:24N 29°49' W 093°21'410.3
2017-Nov-07 05:00N 29°53' W 093°21'4 8.9
2017-Nov-07 04:30N 29°57' W 093°20'4 7.1
2017-Nov-07 04:00N 30°01' W 093°20'4 7.5
2017-Nov-07 03:30N 30°05' W 093°20'3 6.4
2017-Nov-07 03:00N 30°08' W 093°20'2 4.7
2017-Nov-07 02:30N 30°10' W 093°19'2 3.5
2017-Nov-07 02:00N 30°11' W 093°18'0 0.3
2017-Nov-07 01:30N 30°12' W 093°18'0 0.0
2017-Nov-07 01:00N 30°12' W 093°18'0 0.0
2017-Nov-07 00:30N 30°12' W 093°18'0 0.0
2017-Nov-07 00:00N 30°12' W 093°18'0 0.0
2017-Nov-06 23:30N 30°12' W 093°18'0 0.0
2017-Nov-06 22:57N 30°12' W 093°18'0 0.0
2017-Nov-06 22:27N 30°12' W 093°18'0 0.0
2017-Nov-06 22:00N 30°12' W 093°18'0 0.0
2017-Nov-06 21:30N 30°12' W 093°18'0 0.0
2017-Nov-06 21:00N 30°12' W 093°18'0 0.0
2017-Nov-06 20:27N 30°12' W 093°18'1 0.0
2017-Nov-06 02:29N 30°11' W 093°18'0 0.0
2017-Nov-06 01:59N 30°11' W 093°18'0 0.0
2017-Nov-06 01:29N 30°11' W 093°18'0 0.0
2017-Nov-06 00:59N 30°11' W 093°18'0 0.1
2017-Nov-06 00:29N 30°11' W 093°18'0 0.1
2017-Nov-05 23:59N 30°11' W 093°18'0 0.0
2017-Nov-05 23:29N 30°11' W 093°18'0 0.0
2017-Nov-05 22:59N 30°11' W 093°18'0 0.0
2017-Nov-05 22:29N 30°11' W 093°18'0 0.0
2017-Nov-05 21:59N 30°11' W 093°18'0 0.0
2017-Nov-05 21:26N 30°11' W 093°18'0 0.0
2017-Nov-05 20:59N 30°11' W 093°18'0 0.0
2017-Nov-05 20:29N 30°11' W 093°18'0 0.0
2017-Nov-05 19:59N 30°11' W 093°18'0 0.0
2017-Nov-05 19:30N 30°11' W 093°18'1 2.2
2017-Nov-05 19:00N 30°10' W 093°19'3 5.1
2017-Nov-05 18:30N 30°08' W 093°20'4 7.1
2017-Nov-05 18:00N 30°04' W 093°20'3 6.8
2017-Nov-05 17:30N 30°01' W 093°20'3 6.7
2017-Nov-05 17:00N 29°57' W 093°20'4 7.7
2017-Nov-05 16:30N 29°53' W 093°21'4 7.5
2017-Nov-05 16:00N 29°50' W 093°21'3 5.4
2017-Nov-05 15:30N 29°47' W 093°21'4 8.0
2017-Nov-05 15:00N 29°43' W 093°20'1211.8
2017-Nov-05 13:57N 29°32' W 093°13'  
Track history (hours):
 
Tides and Currents Weather Stations Pressure Air Temp Water Temp Dewpoint Dewpoint Depression Visibility Wind Speed Wind Dir Waves Ship Positions

Palmetto State

Owner: Crowley Petroleum Services, Inc., Jacksonville, FL. More information available from US FCC via Universal Licensing System and Coast Guard Vessel Documentation Center.

Last reported at 2017-Nov-12 16:02 UTC. Time now 2017-Nov-20 02:16 UTC.
Position N 29°45' W 095°06'.

Length 186 m; draft 8.9 m.

Type: Tanker. MMSI: 369225000.

Date/timePositionNaut miles runAvg speedWind from/ knotsBaromVisibWave heightAir tempDewpointWater temp
2017-Nov-12 16:02N 29°45' W 095°06'0 0.0
2017-Nov-12 16:00N 29°45' W 095°06'0 0.0
2017-Nov-12 15:31N 29°45' W 095°06'0 0.1
2017-Nov-12 15:00N 29°45' W 095°06'1 2.0
2017-Nov-12 14:30N 29°46' W 095°05'3 6.0
2017-Nov-12 14:00N 29°44' W 095°03'4 7.7
2017-Nov-12 13:30N 29°41' W 094°59'510.8
2017-Nov-12 13:00N 29°36' W 094°57'612.5
2017-Nov-12 12:30N 29°31' W 094°53'612.9
2017-Nov-12 12:00N 29°25' W 094°50'  
2017-Nov-07 09:45N 28°59' W 093°13'314.0
2017-Nov-07 09:30N 29°02' W 093°13'814.1
2017-Nov-07 08:58N 29°10' W 093°13'1014.0
2017-Nov-07 08:15N 29°20' W 093°14'313.2
2017-Nov-07 07:59N 29°23' W 093°14'612.2
2017-Nov-07 07:28N 29°29' W 093°13'11 9.9
2017-Nov-07 06:20N 29°39' W 093°20'711.0
2017-Nov-07 05:40N 29°47' W 093°21'2 8.2
2017-Nov-07 05:24N 29°49' W 093°21'410.3
2017-Nov-07 05:00N 29°53' W 093°21'4 8.9
2017-Nov-07 04:30N 29°57' W 093°20'4 7.1
2017-Nov-07 04:00N 30°01' W 093°20'4 7.5
2017-Nov-07 03:30N 30°05' W 093°20'3 6.4
2017-Nov-07 03:00N 30°08' W 093°20'2 4.7
2017-Nov-07 02:30N 30°10' W 093°19'2 3.5
2017-Nov-07 02:00N 30°11' W 093°18'0 0.3
2017-Nov-07 01:30N 30°12' W 093°18'0 0.0
2017-Nov-07 01:00N 30°12' W 093°18'0 0.0
2017-Nov-07 00:30N 30°12' W 093°18'0 0.0
2017-Nov-07 00:00N 30°12' W 093°18'0 0.0
2017-Nov-06 23:30N 30°12' W 093°18'0 0.0
2017-Nov-06 22:57N 30°12' W 093°18'0 0.0
2017-Nov-06 22:27N 30°12' W 093°18'0 0.0
2017-Nov-06 22:00N 30°12' W 093°18'0 0.0
2017-Nov-06 21:30N 30°12' W 093°18'0 0.0
2017-Nov-06 21:00N 30°12' W 093°18'0 0.0
2017-Nov-06 20:27N 30°12' W 093°18'1 0.0
2017-Nov-06 02:29N 30°11' W 093°18'0 0.0
2017-Nov-06 01:59N 30°11' W 093°18'0 0.0
2017-Nov-06 01:29N 30°11' W 093°18'0 0.0
2017-Nov-06 00:59N 30°11' W 093°18'0 0.1
2017-Nov-06 00:29N 30°11' W 093°18'0 0.1
2017-Nov-05 23:59N 30°11' W 093°18'0 0.0
2017-Nov-05 23:29N 30°11' W 093°18'0 0.0
2017-Nov-05 22:59N 30°11' W 093°18'0 0.0
2017-Nov-05 22:29N 30°11' W 093°18'0 0.0
2017-Nov-05 21:59N 30°11' W 093°18'0 0.0
2017-Nov-05 21:26N 30°11' W 093°18'0 0.0
2017-Nov-05 20:59N 30°11' W 093°18'0 0.0
2017-Nov-05 20:29N 30°11' W 093°18'0 0.0
2017-Nov-05 19:59N 30°11' W 093°18'0 0.0
2017-Nov-05 19:30N 30°11' W 093°18'1 2.2
2017-Nov-05 19:00N 30°10' W 093°19'3 5.1
2017-Nov-05 18:30N 30°08' W 093°20'4 7.1
2017-Nov-05 18:00N 30°04' W 093°20'3 6.8
2017-Nov-05 17:30N 30°01' W 093°20'3 6.7
2017-Nov-05 17:00N 29°57' W 093°20'4 7.7
2017-Nov-05 16:30N 29°53' W 093°21'4 7.5
2017-Nov-05 16:00N 29°50' W 093°21'3 5.4
2017-Nov-05 15:30N 29°47' W 093°21'4 8.0
2017-Nov-05 15:00N 29°43' W 093°20'1211.8
2017-Nov-05 13:57N 29°32' W 093°13'  

Dump ship's entire track history